Time;durP1;ratioP1;P1;durP2;ratioP2;P2;SDS_P1;SDS_P2;PMS_P1;PMS_P2;Temp;Humidity;BMP_temperature;BMP_pressure;BME280_temperature;BME280_humidity;BME280_pressure;Samples;Min_cycle;Max_cycle;Signal;HPM_P1;HPM_P2
2021/07/05 00:02:11;;;;;;;3.38;3.05;;;;;;;;;;5033761;28;20245;-47
2021/07/05 00:04:38;;;;;;;3.88;2.92;;;;;;;;;;5033905;28;20559;-47
2021/07/05 00:07:04;;;;;;;4.43;3.20;;;;;;;;;;5033973;28;20195;-47
2021/07/05 00:09:31;;;;;;;3.25;3.03;;;;;;;;;;5033999;28;20450;-47
2021/07/05 00:11:57;;;;;;;3.47;3.17;;;;;;;;;;5030613;28;20459;-47
2021/07/05 00:14:23;;;;;;;3.33;2.97;;;;;;;;;;5031124;28;20175;-47
2021/07/05 00:16:49;;;;;;;6.82;3.42;;;;;;;;;;5033303;28;20267;-47
2021/07/05 00:19:15;;;;;;;3.30;2.95;;;;;;;;;;5034045;28;20191;-47
2021/07/05 00:21:41;;;;;;;3.70;3.08;;;;;;;;;;5033463;28;20184;-47
2021/07/05 00:24:07;;;;;;;3.72;3.30;;;;;;;;;;5034390;28;20438;-47
2021/07/05 00:26:33;;;;;;;3.42;3.13;;;;;;;;;;5033726;28;20184;-47
2021/07/05 00:28:59;;;;;;;3.20;2.80;;;;;;;;;;5032886;28;20179;-47
2021/07/05 00:31:25;;;;;;;3.13;2.70;;;;;;;;;;5033629;28;20491;-47
2021/07/05 00:33:51;;;;;;;3.58;2.92;;;;;;;;;;5033871;28;20574;-47
2021/07/05 00:36:17;;;;;;;3.47;3.17;;;;;;;;;;5032517;28;20184;-47
2021/07/05 00:38:43;;;;;;;3.88;2.60;;;;;;;;;;5033607;28;20547;-47
2021/07/05 00:41:09;;;;;;;2.80;2.60;;;;;;;;;;5032547;28;20180;-47
2021/07/05 00:43:35;;;;;;;3.53;2.97;;;;;;;;;;5033787;28;20458;-47
2021/07/05 00:46:01;;;;;;;3.00;2.80;;;;;;;;;;5032837;28;20187;-47
2021/07/05 00:48:27;;;;;;;3.80;2.92;;;;;;;;;;5033599;28;20542;-48
2021/07/05 00:50:53;;;;;;;3.15;2.85;;;;;;;;;;5031180;28;20190;-48
2021/07/05 00:53:19;;;;;;;3.63;3.00;;;;;;;;;;5034016;28;20461;-48
2021/07/05 00:55:46;;;;;;;3.03;2.72;;;;;;;;;;5026362;28;20271;-48
2021/07/05 00:58:12;;;;;;;3.10;2.78;;;;;;;;;;5020389;28;20188;-48
2021/07/05 01:00:38;;;;;;;4.20;2.72;;;;;;;;;;5023917;28;20195;-48
2021/07/05 01:03:04;;;;;;;2.70;2.50;;;;;;;;;;5037272;28;20214;-48
2021/07/05 01:05:31;;;;;;;3.88;2.70;;;;;;;;;;5037205;28;20215;-48
2021/07/05 01:07:57;;;;;;;8.40;2.67;;;;;;;;;;5036746;28;20195;-48
2021/07/05 01:10:23;;;;;;;4.55;2.63;;;;;;;;;;5037284;28;20184;-48
2021/07/05 01:12:50;;;;;;;3.58;2.97;;;;;;;;;;5037067;28;20685;-48
2021/07/05 01:15:18;;;;;;;2.67;2.47;;;;;;;;;;5035608;28;20184;-48
2021/07/05 01:17:44;;;;;;;2.58;2.17;;;;;;;;;;5036040;28;20187;-48
2021/07/05 01:20:11;;;;;;;2.72;2.53;;;;;;;;;;5036759;28;20476;-48
2021/07/05 01:22:38;;;;;;;2.88;2.50;;;;;;;;;;5037128;28;20189;-48
2021/07/05 01:25:05;;;;;;;2.67;2.40;;;;;;;;;;5033096;28;20194;-48
2021/07/05 01:27:31;;;;;;;2.97;2.60;;;;;;;;;;5016786;28;20183;-48
2021/07/05 01:29:57;;;;;;;2.70;2.50;;;;;;;;;;5033165;28;20184;-48
2021/07/05 01:32:23;;;;;;;3.22;2.60;;;;;;;;;;5036157;28;20687;-48
2021/07/05 01:34:49;;;;;;;2.90;2.45;;;;;;;;;;5036575;28;20202;-48
2021/07/05 01:37:15;;;;;;;2.75;2.55;;;;;;;;;;5036076;28;20300;-48
2021/07/05 01:39:41;;;;;;;2.92;2.55;;;;;;;;;;5036527;28;20190;-48
2021/07/05 01:42:08;;;;;;;4.18;2.38;;;;;;;;;;5036879;28;20576;-47
2021/07/05 01:44:34;;;;;;;2.50;2.30;;;;;;;;;;5035917;28;20214;-47
2021/07/05 01:47:00;;;;;;;2.20;2.00;;;;;;;;;;5022901;28;20184;-48
2021/07/05 01:49:26;;;;;;;2.15;2.05;;;;;;;;;;5035981;28;20186;-48
2021/07/05 01:51:53;;;;;;;2.53;2.22;;;;;;;;;;5036048;28;20211;-48
2021/07/05 01:54:19;;;;;;;2.60;2.33;;;;;;;;;;5036687;28;20180;-48
2021/07/05 01:56:45;;;;;;;3.63;2.60;;;;;;;;;;5035760;28;20179;-47
2021/07/05 01:59:11;;;;;;;2.47;2.28;;;;;;;;;;5035594;28;20184;-47
2021/07/05 02:01:38;;;;;;;2.42;2.22;;;;;;;;;;5036297;28;20459;-47
2021/07/05 02:04:05;;;;;;;2.65;2.45;;;;;;;;;;5036006;28;20505;-48
2021/07/05 02:06:31;;;;;;;2.60;2.40;;;;;;;;;;5035540;28;20178;-48
2021/07/05 02:08:57;;;;;;;3.22;2.25;;;;;;;;;;5036119;28;20172;-47
2021/07/05 02:11:23;;;;;;;3.53;2.60;;;;;;;;;;5031424;28;20184;-47
2021/07/05 02:13:51;;;;;;;3.90;2.42;;;;;;;;;;5032335;28;20207;-47
2021/07/05 02:16:17;;;;;;;2.78;2.40;;;;;;;;;;5035460;28;20207;-47
2021/07/05 02:18:43;;;;;;;3.30;2.50;;;;;;;;;;5035588;28;20195;-47
2021/07/05 02:21:09;;;;;;;2.72;2.28;;;;;;;;;;5034341;28;20184;-47
2021/07/05 02:23:36;;;;;;;2.42;2.15;;;;;;;;;;5036093;28;20234;-47
2021/07/05 02:26:03;;;;;;;2.20;2.00;;;;;;;;;;5035297;28;20191;-47
2021/07/05 02:28:30;;;;;;;2.50;2.30;;;;;;;;;;5035570;28;20222;-48
2021/07/05 02:30:57;;;;;;;2.40;2.03;;;;;;;;;;5035612;28;20239;-48
2021/07/05 02:33:25;;;;;;;2.85;2.05;;;;;;;;;;5035805;28;20579;-48
2021/07/05 02:35:51;;;;;;;2.20;2.00;;;;;;;;;;5033637;28;20591;-48
2021/07/05 02:38:18;;;;;;;1.92;1.83;;;;;;;;;;5022665;28;20283;-48
2021/07/05 02:40:48;;;;;;;2.08;1.98;;;;;;;;;;5034246;28;20218;-48
2021/07/05 02:43:15;;;;;;;2.08;1.90;;;;;;;;;;5035589;28;20180;-48
2021/07/05 02:45:42;;;;;;;2.42;2.08;;;;;;;;;;5034586;28;20524;-48
2021/07/05 02:48:09;;;;;;;2.40;2.20;;;;;;;;;;5035243;28;20164;-48
2021/07/05 02:50:36;;;;;;;1.83;1.70;;;;;;;;;;5034708;28;20183;-48
2021/07/05 02:53:03;;;;;;;2.22;2.03;;;;;;;;;;5035175;28;20203;-48
2021/07/05 02:55:29;;;;;;;2.10;2.00;;;;;;;;;;5035289;28;20263;-47
2021/07/05 02:57:55;;;;;;;2.33;2.13;;;;;;;;;;5034829;28;20172;-47
2021/07/05 03:00:26;;;;;;;2.33;1.80;;;;;;;;;;5034707;28;20195;-47
2021/07/05 03:02:53;;;;;;;2.10;1.98;;;;;;;;;;5034946;28;20184;-47
2021/07/05 03:05:20;;;;;;;2.25;2.05;;;;;;;;;;5034872;28;20467;-47
2021/07/05 03:07:46;;;;;;;2.22;2.03;;;;;;;;;;5034217;28;20511;-48
2021/07/05 03:10:14;;;;;;;2.08;1.98;;;;;;;;;;5035399;28;20175;-47
2021/07/05 03:12:40;;;;;;;2.10;2.00;;;;;;;;;;5034240;28;20211;-47
2021/07/05 03:15:07;;;;;;;2.47;2.00;;;;;;;;;;5035009;28;20202;-47
2021/07/05 03:17:34;;;;;;;1.95;1.85;;;;;;;;;;5034288;28;20204;-47
2021/07/05 03:20:00;;;;;;;2.30;1.95;;;;;;;;;;5034313;28;20282;-47
2021/07/05 03:22:26;;;;;;;2.00;1.90;;;;;;;;;;5034041;28;20267;-47
2021/07/05 03:24:53;;;;;;;1.92;1.83;;;;;;;;;;5034711;28;20209;-47
2021/07/05 03:27:19;;;;;;;2.20;2.00;;;;;;;;;;5030813;28;20175;-47
2021/07/05 03:29:45;;;;;;;3.15;1.95;;;;;;;;;;5035079;28;20187;-47
2021/07/05 03:32:11;;;;;;;2.10;1.92;;;;;;;;;;5034911;28;20204;-47
2021/07/05 03:34:37;;;;;;;2.28;2.13;;;;;;;;;;5030790;28;20566;-47
2021/07/05 03:37:04;;;;;;;2.35;2.15;;;;;;;;;;5024294;28;20181;-47
2021/07/05 03:39:29;;;;;;;3.63;2.13;;;;;;;;;;5025823;28;20191;-47
2021/07/05 03:41:55;;;;;;;2.10;1.92;;;;;;;;;;5034670;28;20441;-47
2021/07/05 03:44:21;;;;;;;3.30;2.13;;;;;;;;;;5034715;28;20196;-47
2021/07/05 03:46:48;;;;;;;2.58;1.98;;;;;;;;;;5033756;28;20176;-47
2021/07/05 03:49:14;;;;;;;2.28;2.08;;;;;;;;;;5025721;28;20180;-47
2021/07/05 03:51:40;;;;;;;2.20;2.10;;;;;;;;;;5033769;28;20286;-47
2021/07/05 03:54:05;;;;;;;9.55;3.88;;;;;;;;;;5034819;28;20498;-47
2021/07/05 03:56:31;;;;;;;18.27;5.28;;;;;;;;;;5033897;28;20180;-47
2021/07/05 03:58:57;;;;;;;18.83;5.93;;;;;;;;;;5033805;28;20269;-47
2021/07/05 04:01:24;;;;;;;14.60;5.63;;;;;;;;;;5026053;28;20183;-47
2021/07/05 04:03:50;;;;;;;17.45;5.07;;;;;;;;;;5033874;28;20195;-47
2021/07/05 04:06:16;;;;;;;14.68;4.93;;;;;;;;;;5033625;28;20183;-47
2021/07/05 04:08:42;;;;;;;10.48;4.60;;;;;;;;;;5034492;28;20195;-48
2021/07/05 04:11:09;;;;;;;13.45;4.32;;;;;;;;;;5027927;28;20547;-48
2021/07/05 04:13:35;;;;;;;19.52;6.15;;;;;;;;;;5014704;28;20627;-48
2021/07/05 04:16:01;;;;;;;18.70;5.82;;;;;;;;;;5029513;28;20267;-48
2021/07/05 04:18:27;;;;;;;20.52;6.65;;;;;;;;;;5033688;28;20563;-48
2021/07/05 04:20:53;;;;;;;22.42;6.75;;;;;;;;;;5033534;28;20187;-48
2021/07/05 04:23:20;;;;;;;24.98;7.10;;;;;;;;;;5034460;28;20221;-47
2021/07/05 04:25:46;;;;;;;19.50;6.60;;;;;;;;;;5026785;28;20172;-47
2021/07/05 04:28:13;;;;;;;17.15;6.05;;;;;;;;;;5032031;28;20244;-47
2021/07/05 04:30:39;;;;;;;20.17;6.53;;;;;;;;;;5034022;28;20191;-48
2021/07/05 04:33:05;;;;;;;18.70;5.80;;;;;;;;;;5033744;28;20200;-48
2021/07/05 04:35:31;;;;;;;13.93;5.65;;;;;;;;;;5036566;28;20525;-47
2021/07/05 04:37:59;;;;;;;15.73;5.70;;;;;;;;;;5035580;28;20180;-47
2021/07/05 04:40:26;;;;;;;12.75;5.07;;;;;;;;;;5019736;28;20196;-47
2021/07/05 04:42:52;;;;;;;15.80;5.22;;;;;;;;;;5018125;28;20826;-47
2021/07/05 04:45:20;;;;;;;13.15;4.88;;;;;;;;;;5028258;28;20202;-47
2021/07/05 04:47:46;;;;;;;12.57;4.80;;;;;;;;;;5036447;28;20237;-47
2021/07/05 04:50:13;;;;;;;12.85;5.30;;;;;;;;;;5037633;28;20199;-47
2021/07/05 04:52:39;;;;;;;14.23;4.95;;;;;;;;;;5032329;28;20212;-48
2021/07/05 04:55:06;;;;;;;11.98;5.55;;;;;;;;;;5037245;28;20191;-48
2021/07/05 04:57:33;;;;;;;10.80;4.40;;;;;;;;;;5036500;28;20179;-48
2021/07/05 04:59:59;;;;;;;10.50;4.88;;;;;;;;;;5037218;28;20649;-48
2021/07/05 05:02:25;;;;;;;9.32;4.15;;;;;;;;;;5036735;28;20176;-48
2021/07/05 05:04:51;;;;;;;11.43;3.90;;;;;;;;;;5036452;28;20259;-48
2021/07/05 05:07:17;;;;;;;6.85;3.97;;;;;;;;;;5036192;28;20186;-47
2021/07/05 05:09:43;;;;;;;5.60;4.03;;;;;;;;;;5037269;28;20176;-47
2021/07/05 05:12:09;;;;;;;7.95;3.90;;;;;;;;;;5035835;28;20211;-47
2021/07/05 05:14:36;;;;;;;6.32;3.70;;;;;;;;;;5033974;28;20587;-47
2021/07/05 05:17:03;;;;;;;4.35;3.22;;;;;;;;;;5035914;28;20407;-47
2021/07/05 05:19:29;;;;;;;4.07;3.67;;;;;;;;;;5037055;28;20172;-48
2021/07/05 05:21:55;;;;;;;4.15;2.88;;;;;;;;;;5036855;28;20238;-48
2021/07/05 05:24:21;;;;;;;6.70;3.00;;;;;;;;;;5036464;28;20176;-48
2021/07/05 05:26:48;;;;;;;4.03;3.38;;;;;;;;;;5032791;28;20258;-48
2021/07/05 05:29:14;;;;;;;3.85;3.00;;;;;;;;;;5056995;28;20179;-48
2021/07/05 05:31:40;;;;;;;4.63;3.50;;;;;;;;;;5043532;28;20646;-48
2021/07/05 05:34:06;;;;;;;3.65;3.20;;;;;;;;;;5043468;28;20192;-48
2021/07/05 05:36:32;;;;;;;3.75;3.40;;;;;;;;;;5035688;28;20611;-48
2021/07/05 05:39:01;;;;;;;4.35;3.47;;;;;;;;;;5036559;28;20164;-50
2021/07/05 05:41:27;;;;;;;4.60;4.18;;;;;;;;;;5029686;28;20647;-47
2021/07/05 05:43:54;;;;;;;4.07;3.67;;;;;;;;;;5016752;28;20255;-48
2021/07/05 05:46:20;;;;;;;4.55;3.35;;;;;;;;;;5022195;28;20194;-48
2021/07/05 05:48:50;;;;;;;5.55;3.42;;;;;;;;;;5035831;28;20175;-48
2021/07/05 05:51:16;;;;;;;5.15;3.75;;;;;;;;;;5036059;28;20233;-48
2021/07/05 05:53:43;;;;;;;5.03;3.67;;;;;;;;;;5035751;28;20286;-48
2021/07/05 05:56:09;;;;;;;5.03;3.70;;;;;;;;;;5036137;28;20242;-48
2021/07/05 05:58:41;;;;;;;3.70;3.40;;;;;;;;;;5035796;28;20626;-48
2021/07/05 06:01:07;;;;;;;3.58;3.28;;;;;;;;;;5036159;28;20266;-47
2021/07/05 06:03:33;;;;;;;4.38;3.97;;;;;;;;;;5035651;28;20190;-47
2021/07/05 06:06:00;;;;;;;5.15;4.03;;;;;;;;;;5035642;28;20186;-47
2021/07/05 06:08:26;;;;;;;4.03;3.53;;;;;;;;;;5024905;28;20495;-47
2021/07/05 06:10:52;;;;;;;4.85;3.67;;;;;;;;;;5036139;28;20180;-47
2021/07/05 06:13:18;;;;;;;4.03;3.30;;;;;;;;;;5035669;28;20200;-47
2021/07/05 06:15:44;;;;;;;4.47;3.22;;;;;;;;;;5033993;28;20190;-48
2021/07/05 06:18:10;;;;;;;4.97;3.28;;;;;;;;;;5036043;28;20207;-48
2021/07/05 06:20:36;;;;;;;3.92;3.53;;;;;;;;;;5036105;28;20202;-48
2021/07/05 06:23:03;;;;;;;3.60;3.30;;;;;;;;;;5035647;28;20187;-48
2021/07/05 06:25:29;;;;;;;3.50;3.20;;;;;;;;;;5036011;28;20496;-48
2021/07/05 06:27:55;;;;;;;3.45;2.90;;;;;;;;;;5034778;28;20183;-47
2021/07/05 06:30:21;;;;;;;4.45;3.00;;;;;;;;;;5035483;28;20246;-48
2021/07/05 06:32:47;;;;;;;3.60;3.10;;;;;;;;;;5034848;28;20207;-47
2021/07/05 06:35:14;;;;;;;3.45;2.90;;;;;;;;;;5029990;28;20261;-47
2021/07/05 06:37:40;;;;;;;4.47;2.50;;;;;;;;;;5034380;28;20183;-47
2021/07/05 06:40:07;;;;;;;2.97;2.67;;;;;;;;;;5033125;28;20207;-47
2021/07/05 06:42:34;;;;;;;4.10;2.47;;;;;;;;;;5033374;28;20226;-47
2021/07/05 06:45:00;;;;;;;3.20;2.88;;;;;;;;;;5033922;28;20180;-48
2021/07/05 06:47:26;;;;;;;2.60;2.40;;;;;;;;;;5034107;28;20279;-48
2021/07/05 06:49:52;;;;;;;3.03;2.75;;;;;;;;;;5041398;28;20202;-48
2021/07/05 06:52:18;;;;;;;3.05;2.75;;;;;;;;;;5034470;28;20215;-48
2021/07/05 06:54:45;;;;;;;2.95;2.75;;;;;;;;;;5026133;28;20176;-48
2021/07/05 06:57:30;;;;;;;2.75;2.55;;;;;;;;;;5019028;28;20475;-48
2021/07/05 06:59:59;;;;;;;2.70;2.50;;;;;;;;;;5019398;28;20175;-48
2021/07/05 07:02:26;;;;;;;2.90;2.47;;;;;;;;;;5034259;28;20211;-48
2021/07/05 07:04:52;;;;;;;3.95;2.50;;;;;;;;;;5035598;28;20214;-48
2021/07/05 07:07:18;;;;;;;2.72;2.53;;;;;;;;;;5039198;28;20586;-48
2021/07/05 07:09:44;;;;;;;3.85;2.78;;;;;;;;;;5028969;28;20369;-47
2021/07/05 07:12:10;;;;;;;2.58;2.38;;;;;;;;;;5033795;28;20626;-47
2021/07/05 07:14:36;;;;;;;2.53;2.28;;;;;;;;;;5034123;28;20516;-48
2021/07/05 07:17:08;;;;;;;2.40;2.20;;;;;;;;;;5033568;28;20206;-48
2021/07/05 07:19:34;;;;;;;3.22;2.20;;;;;;;;;;5034186;28;20191;-48
2021/07/05 07:22:04;;;;;;;3.28;2.30;;;;;;;;;;5039405;28;20214;-48
2021/07/05 07:24:32;;;;;;;3.90;2.65;;;;;;;;;;5033251;28;20211;-48
2021/07/05 07:26:58;;;;;;;3.40;1.90;;;;;;;;;;5024845;28;20237;-48
2021/07/05 07:29:24;;;;;;;3.78;2.10;;;;;;;;;;5034009;28;20492;-47
2021/07/05 07:31:50;;;;;;;1.90;1.70;;;;;;;;;;5033340;28;20184;-47
2021/07/05 07:34:16;;;;;;;2.13;1.90;;;;;;;;;;5034292;28;20447;-48
2021/07/05 07:36:43;;;;;;;2.42;1.90;;;;;;;;;;5033355;28;20187;-48
2021/07/05 07:39:13;;;;;;;2.03;1.75;;;;;;;;;;5034572;28;20334;-48
2021/07/05 07:41:39;;;;;;;3.35;1.63;;;;;;;;;;5032701;28;20195;-47
2021/07/05 07:44:05;;;;;;;1.80;1.70;;;;;;;;;;5033118;28;20195;-47
2021/07/05 07:46:31;;;;;;;2.95;2.17;;;;;;;;;;5031240;28;20496;-47
2021/07/05 07:48:57;;;;;;;1.70;1.60;;;;;;;;;;5031774;28;20293;-47
2021/07/05 07:51:24;;;;;;;5.95;1.90;;;;;;;;;;5032868;28;20210;-47
2021/07/05 07:53:50;;;;;;;1.98;1.77;;;;;;;;;;5032938;28;20199;-48
2021/07/05 07:56:16;;;;;;;1.60;1.50;;;;;;;;;;5031558;28;20175;-48
2021/07/05 07:58:42;;;;;;;2.13;1.65;;;;;;;;;;5032559;28;20203;-48
2021/07/05 08:01:08;;;;;;;1.75;1.63;;;;;;;;;;5033557;28;20253;-48
2021/07/05 08:03:34;;;;;;;2.35;1.60;;;;;;;;;;5033159;28;20172;-48
2021/07/05 08:06:01;;;;;;;2.05;1.83;;;;;;;;;;5033213;28;20198;-47
2021/07/05 08:08:27;;;;;;;1.75;1.50;;;;;;;;;;5034980;28;20202;-47
2021/07/05 08:10:53;;;;;;;1.50;1.40;;;;;;;;;;5038156;28;20183;-47
2021/07/05 08:13:19;;;;;;;2.38;1.50;;;;;;;;;;5037947;28;20211;-49
2021/07/05 08:15:48;;;;;;;1.63;1.52;;;;;;;;;;5037881;28;20184;-48
2021/07/05 08:18:14;;;;;;;3.08;1.50;;;;;;;;;;5037146;28;20171;-48
2021/07/05 08:20:40;;;;;;;3.00;1.30;;;;;;;;;;5038134;28;20555;-48
2021/07/05 08:23:06;;;;;;;1.48;1.38;;;;;;;;;;5038053;28;20183;-48
2021/07/05 08:25:33;;;;;;;2.63;1.50;;;;;;;;;;5038364;28;20198;-48
2021/07/05 08:27:59;;;;;;;2.58;1.75;;;;;;;;;;5036970;28;20199;-48
2021/07/05 08:30:25;;;;;;;2.03;1.40;;;;;;;;;;5038320;28;20599;-48
2021/07/05 08:32:52;;;;;;;2.00;1.50;;;;;;;;;;5037170;28;20301;-48
2021/07/05 08:35:18;;;;;;;1.45;1.30;;;;;;;;;;5038124;28;20184;-48
2021/07/05 08:37:44;;;;;;;2.83;1.42;;;;;;;;;;5035895;28;20184;-48
2021/07/05 08:40:11;;;;;;;2.22;1.40;;;;;;;;;;5034125;28;20443;-48
2021/07/05 08:42:37;;;;;;;1.58;1.35;;;;;;;;;;5016168;28;20184;-48
2021/07/05 08:45:05;;;;;;;1.40;1.30;;;;;;;;;;5016078;28;20181;-48
2021/07/05 08:47:34;;;;;;;2.15;1.35;;;;;;;;;;5015561;28;20173;-48
2021/07/05 08:50:00;;;;;;;1.63;1.35;;;;;;;;;;5016128;28;20314;-48
2021/07/05 08:52:26;;;;;;;2.80;1.48;;;;;;;;;;5016660;28;20286;-48
2021/07/05 08:54:53;;;;;;;1.42;1.33;;;;;;;;;;5030265;28;20490;-48
2021/07/05 08:57:37;;;;;;;1.90;1.50;;;;;;;;;;5021043;28;20180;-48
2021/07/05 09:00:05;;;;;;;2.67;1.52;;;;;;;;;;5017950;28;20271;-48
2021/07/05 09:02:32;;;;;;;3.60;1.45;;;;;;;;;;5026874;28;20581;-48
2021/07/05 09:04:58;;;;;;;1.98;1.50;;;;;;;;;;5037548;28;20602;-48
2021/07/05 09:07:24;;;;;;;1.92;1.50;;;;;;;;;;5037171;28;20179;-48
2021/07/05 09:09:57;;;;;;;1.50;1.40;;;;;;;;;;5031524;28;20180;-48
2021/07/05 09:12:23;;;;;;;2.45;1.60;;;;;;;;;;5033925;28;20199;-48
2021/07/05 09:15:05;;;;;;;1.63;1.20;;;;;;;;;;5037526;28;20408;-48
2021/07/05 09:17:34;;;;;;;2.47;1.38;;;;;;;;;;5036182;28;20195;-48
2021/07/05 09:20:01;;;;;;;1.30;1.20;;;;;;;;;;5016792;28;20204;-48
2021/07/05 09:22:27;;;;;;;3.72;1.30;;;;;;;;;;5020687;28;20187;-48
2021/07/05 09:24:57;;;;;;;1.42;1.33;;;;;;;;;;5035108;28;20171;-48
2021/07/05 09:27:33;;;;;;;1.85;1.25;;;;;;;;;;5030376;28;20637;-48
2021/07/05 09:30:10;;;;;;;1.52;1.40;;;;;;;;;;5036954;28;20172;-48
2021/07/05 09:32:36;;;;;;;2.42;1.50;;;;;;;;;;5036355;28;20203;-48
2021/07/05 09:35:12;;;;;;;1.50;1.38;;;;;;;;;;5024842;28;20191;-48
2021/07/05 09:37:49;;;;;;;2.85;1.60;;;;;;;;;;5036270;28;20171;-48
2021/07/05 09:40:16;;;;;;;1.65;1.50;;;;;;;;;;5035153;28;20226;-48
2021/07/05 09:42:46;;;;;;;2.08;1.42;;;;;;;;;;5031558;28;20192;-48
2021/07/05 09:45:13;;;;;;;1.50;1.35;;;;;;;;;;5034874;28;20188;-48
2021/07/05 09:47:40;;;;;;;2.05;1.20;;;;;;;;;;5030861;28;20176;-48
2021/07/05 09:50:10;;;;;;;2.45;1.40;;;;;;;;;;5034967;28;20179;-48
2021/07/05 09:52:37;;;;;;;1.40;1.30;;;;;;;;;;5034716;28;20583;-48
2021/07/05 09:55:21;;;;;;;1.52;1.40;;;;;;;;;;5035462;28;20650;-48
2021/07/05 09:57:49;;;;;;;1.90;1.25;;;;;;;;;;5035264;28;20182;-47
2021/07/05 10:00:17;;;;;;;1.88;1.50;;;;;;;;;;5036245;28;20183;-47
2021/07/05 10:03:02;;;;;;;1.30;1.15;;;;;;;;;;5036455;28;20172;-47
2021/07/05 10:05:43;;;;;;;2.00;1.40;;;;;;;;;;5036251;28;20195;-47
2021/07/05 10:08:14;;;;;;;1.50;1.40;;;;;;;;;;5035460;28;20574;-47
2021/07/05 10:10:41;;;;;;;2.92;1.40;;;;;;;;;;5035499;28;20179;-47
2021/07/05 10:13:09;;;;;;;2.92;1.30;;;;;;;;;;5033233;28;20196;-48
2021/07/05 10:15:35;;;;;;;1.63;1.52;;;;;;;;;;5030008;28;20219;-48
2021/07/05 10:18:02;;;;;;;3.05;1.35;;;;;;;;;;5035540;28;20217;-48
2021/07/05 10:20:33;;;;;;;2.05;1.55;;;;;;;;;;5035905;28;20175;-48
2021/07/05 10:23:04;;;;;;;2.10;1.40;;;;;;;;;;5035838;28;20251;-48
2021/07/05 10:25:31;;;;;;;1.42;1.33;;;;;;;;;;5035486;28;20191;-48
2021/07/05 10:27:58;;;;;;;3.50;1.20;;;;;;;;;;5034854;28;20176;-48
2021/07/05 10:30:24;;;;;;;2.20;1.50;;;;;;;;;;5018304;28;20184;-48
2021/07/05 10:32:51;;;;;;;2.05;1.30;;;;;;;;;;5030473;28;20245;-48
2021/07/05 10:35:18;;;;;;;1.20;1.15;;;;;;;;;;5035554;28;20200;-48
2021/07/05 10:38:03;;;;;;;3.67;1.45;;;;;;;;;;5035022;28;20262;-47
2021/07/05 10:40:43;;;;;;;1.42;1.33;;;;;;;;;;5035824;28;20237;-47
2021/07/05 10:43:11;;;;;;;2.17;1.38;;;;;;;;;;5035408;28;20495;-47
2021/07/05 10:45:40;;;;;;;1.73;1.20;;;;;;;;;;5026216;28;20184;-47
2021/07/05 10:48:07;;;;;;;1.42;1.33;;;;;;;;;;5023498;28;20214;-47
2021/07/05 10:50:37;;;;;;;1.63;1.27;;;;;;;;;;5035389;28;20282;-47
2021/07/05 10:53:05;;;;;;;4.35;1.40;;;;;;;;;;5035317;28;20191;-47
2021/07/05 10:55:51;;;;;;;1.40;1.30;;;;;;;;;;5035466;28;20169;-47
2021/07/05 10:58:18;;;;;;;1.35;1.05;;;;;;;;;;5034851;28;20490;-47
2021/07/05 11:00:48;;;;;;;1.30;1.20;;;;;;;;;;5034472;28;20175;-48
2021/07/05 11:03:33;;;;;;;2.75;1.30;;;;;;;;;;5024769;28;20443;-48
2021/07/05 11:05:59;;;;;;;3.53;1.23;;;;;;;;;;5034764;28;20168;-48
2021/07/05 11:08:36;;;;;;;0.93;0.90;;;;;;;;;;5034793;28;20552;-48
2021/07/05 11:11:16;;;;;;;1.40;1.05;;;;;;;;;;5029067;28;20238;-48
2021/07/05 11:13:43;;;;;;;1.25;1.08;;;;;;;;;;5034629;28;20226;-48
2021/07/05 11:16:10;;;;;;;1.63;1.10;;;;;;;;;;5034339;28;20176;-48
2021/07/05 11:18:39;;;;;;;1.35;1.20;;;;;;;;;;5034209;28;20179;-48
2021/07/05 11:21:05;;;;;;;2.03;1.23;;;;;;;;;;5035019;28;20168;-48
2021/07/05 11:24:11;;;;;;;1.40;1.17;;;;;;;;;;5030139;28;20175;-48
2021/07/05 11:26:39;;;;;;;1.00;0.90;;;;;;;;;;5027440;28;20215;-48
2021/07/05 11:29:14;;;;;;;1.15;1.10;;;;;;;;;;5032760;28;20644;-48
2021/07/05 11:31:54;;;;;;;2.22;1.00;;;;;;;;;;5022959;28;20271;-48
2021/07/05 11:34:27;;;;;;;1.10;1.00;;;;;;;;;;5040813;28;20625;-48
2021/07/05 11:37:11;;;;;;;2.78;1.00;;;;;;;;;;5054259;28;20182;-48
2021/07/05 11:39:38;;;;;;;1.95;0.88;;;;;;;;;;5040020;28;20207;-48
2021/07/05 11:42:04;;;;;;;2.35;0.90;;;;;;;;;;5034014;28;20179;-48
2021/07/05 11:44:50;;;;;;;0.95;0.80;;;;;;;;;;5033197;28;20191;-48
2021/07/05 11:47:35;;;;;;;0.90;0.90;;;;;;;;;;5032626;28;20267;-48
2021/07/05 11:50:13;;;;;;;1.00;0.90;;;;;;;;;;5034033;28;20445;-48
2021/07/05 11:52:44;;;;;;;0.90;0.90;;;;;;;;;;5033928;28;20211;-48
2021/07/05 11:55:11;;;;;;;1.92;1.00;;;;;;;;;;5027212;28;20208;-48
2021/07/05 11:57:44;;;;;;;0.73;0.73;;;;;;;;;;5027340;28;20188;-48
2021/07/05 12:00:11;;;;;;;2.08;0.95;;;;;;;;;;5034673;28;20205;-48
2021/07/05 12:02:37;;;;;;;0.80;0.80;;;;;;;;;;5035272;28;20192;-48
2021/07/05 12:05:07;;;;;;;0.88;0.80;;;;;;;;;;5044839;28;20226;-48
2021/07/05 12:07:34;;;;;;;2.28;0.70;;;;;;;;;;5033663;28;20428;-48
2021/07/05 12:10:00;;;;;;;3.50;1.00;;;;;;;;;;5051249;28;20225;-48
2021/07/05 12:12:29;;;;;;;0.65;0.65;;;;;;;;;;5032643;28;20238;-48
2021/07/05 12:14:55;;;;;;;0.98;0.77;;;;;;;;;;5034108;28;20187;-48
2021/07/05 12:17:21;;;;;;;0.80;0.80;;;;;;;;;;5033590;28;20586;-48
2021/07/05 12:19:50;;;;;;;1.25;1.00;;;;;;;;;;5033377;28;20597;-48
2021/07/05 12:22:18;;;;;;;3.15;0.95;;;;;;;;;;5033989;28;20180;-48
2021/07/05 12:24:48;;;;;;;2.55;0.73;;;;;;;;;;5034236;28;20258;-48
2021/07/05 12:27:15;;;;;;;0.85;0.70;;;;;;;;;;5030235;28;20176;-48
2021/07/05 12:30:03;;;;;;;0.70;0.70;;;;;;;;;;5028691;28;20180;-48
2021/07/05 12:32:31;;;;;;;1.15;0.80;;;;;;;;;;5032279;28;20322;-48
2021/07/05 12:35:01;;;;;;;0.77;0.77;;;;;;;;;;5034128;28;20180;-48
2021/07/05 12:37:48;;;;;;;0.88;0.77;;;;;;;;;;5033651;28;20262;-48
2021/07/05 12:40:20;;;;;;;1.10;0.68;;;;;;;;;;5033826;28;20490;-48
2021/07/05 12:42:47;;;;;;;2.28;0.85;;;;;;;;;;5029245;28;20264;-48
2021/07/05 12:45:34;;;;;;;0.80;0.80;;;;;;;;;;5031647;28;20188;-48
2021/07/05 12:48:02;;;;;;;0.70;0.65;;;;;;;;;;5031770;28;20242;-48
2021/07/05 12:50:36;;;;;;;0.80;0.77;;;;;;;;;;5043604;28;20249;-48
2021/07/05 12:53:05;;;;;;;0.63;0.63;;;;;;;;;;5045546;28;20226;-48
2021/07/05 12:55:31;;;;;;;0.90;0.75;;;;;;;;;;5034224;28;20559;-48
2021/07/05 12:57:57;;;;;;;4.32;0.75;;;;;;;;;;5036558;28;20187;-48
2021/07/05 13:00:25;;;;;;;2.65;0.80;;;;;;;;;;5035962;28;20595;-48
2021/07/05 13:02:51;;;;;;;2.78;0.80;;;;;;;;;;5037433;28;20324;-48
2021/07/05 13:05:21;;;;;;;3.03;0.85;;;;;;;;;;5037129;28;20262;-48
2021/07/05 13:07:56;;;;;;;0.80;0.63;;;;;;;;;;5036344;28;20188;-48
2021/07/05 13:10:23;;;;;;;1.15;0.68;;;;;;;;;;5029923;28;20478;-48
2021/07/05 13:12:53;;;;;;;1.88;0.60;;;;;;;;;;5037040;28;20230;-48
2021/07/05 13:15:19;;;;;;;2.55;0.70;;;;;;;;;;5035627;28;20466;-48
2021/07/05 13:17:45;;;;;;;2.15;0.55;;;;;;;;;;5036633;28;20195;-48
2021/07/05 13:20:13;;;;;;;4.80;0.68;;;;;;;;;;5037072;28;20172;-48
2021/07/05 13:22:50;;;;;;;0.75;0.75;;;;;;;;;;5036185;28;20186;-48
2021/07/05 13:25:16;;;;;;;0.70;0.60;;;;;;;;;;5037098;28;20180;-48
2021/07/05 13:27:42;;;;;;;3.90;0.63;;;;;;;;;;5035787;28;20191;-48
2021/07/05 13:30:11;;;;;;;0.60;0.60;;;;;;;;;;5035309;28;20219;-48
2021/07/05 13:32:49;;;;;;;0.70;0.70;;;;;;;;;;5026092;28;20717;-48
2021/07/05 13:35:15;;;;;;;1.08;0.50;;;;;;;;;;5036366;28;20213;-48
2021/07/05 13:37:43;;;;;;;1.30;0.60;;;;;;;;;;5035909;28;20184;-48
2021/07/05 13:40:11;;;;;;;0.60;0.57;;;;;;;;;;5036975;28;20347;-48
2021/07/05 13:42:38;;;;;;;1.58;0.90;;;;;;;;;;5035911;28;20191;-48
2021/07/05 13:45:25;;;;;;;1.33;0.70;;;;;;;;;;5036625;28;20183;-48
2021/07/05 13:47:55;;;;;;;4.05;0.70;;;;;;;;;;5030161;28;20187;-47
2021/07/05 13:50:22;;;;;;;2.90;0.95;;;;;;;;;;5036860;28;20168;-48
2021/07/05 13:52:52;;;;;;;2.05;0.82;;;;;;;;;;5036102;28;20204;-48
2021/07/05 13:55:22;;;;;;;1.42;0.60;;;;;;;;;;5036238;28;20179;-48
2021/07/05 13:57:48;;;;;;;1.35;0.77;;;;;;;;;;5035433;28;20172;-48
2021/07/05 14:00:14;;;;;;;0.82;0.82;;;;;;;;;;5035089;28;20212;-48
2021/07/05 14:02:41;;;;;;;0.77;0.70;;;;;;;;;;5035092;28;20195;-48
2021/07/05 14:05:29;;;;;;;0.68;0.68;;;;;;;;;;5034716;28;20182;-48
2021/07/05 14:07:55;;;;;;;1.80;0.85;;;;;;;;;;5033922;28;20206;-48
2021/07/05 14:10:21;;;;;;;1.42;0.60;;;;;;;;;;5033616;28;20168;-48
2021/07/05 14:12:47;;;;;;;1.95;0.75;;;;;;;;;;5033217;28;20295;-48
2021/07/05 14:15:13;;;;;;;1.48;0.77;;;;;;;;;;5035721;28;20306;-48
2021/07/05 14:17:40;;;;;;;1.88;0.90;;;;;;;;;;5035247;28;20190;-48
2021/07/05 14:20:07;;;;;;;0.75;0.63;;;;;;;;;;5034737;28;20520;-48
2021/07/05 14:22:34;;;;;;;0.45;0.45;;;;;;;;;;5035459;28;20558;-48
2021/07/05 14:25:00;;;;;;;3.88;0.70;;;;;;;;;;5035582;28;20597;-48
2021/07/05 14:27:26;;;;;;;2.97;0.68;;;;;;;;;;5034418;28;20215;-48
2021/07/05 14:29:52;;;;;;;1.25;0.68;;;;;;;;;;5035736;28;20234;-48
2021/07/05 14:32:18;;;;;;;0.70;0.43;;;;;;;;;;5035911;28;20463;-48
2021/07/05 14:34:44;;;;;;;0.60;0.60;;;;;;;;;;5035317;28;20212;-48
2021/07/05 14:37:12;;;;;;;3.92;0.70;;;;;;;;;;5028351;28;20183;-48
2021/07/05 14:39:37;;;;;;;2.28;0.57;;;;;;;;;;5028992;28;20179;-48
2021/07/05 14:42:04;;;;;;;0.63;0.50;;;;;;;;;;5035103;28;20488;-48
2021/07/05 14:44:30;;;;;;;1.85;0.43;;;;;;;;;;5035822;28;20258;-48
2021/07/05 14:46:56;;;;;;;2.97;0.50;;;;;;;;;;5034900;28;20262;-48
2021/07/05 14:49:22;;;;;;;2.63;0.50;;;;;;;;;;5017053;28;20173;-48